sensor_id;sensor_type;location;lat;lon;timestamp;P1;durP1;ratioP1;P2;durP2;ratioP2
73733;SDS011;62039;50.000;9.064;2024-03-22T00:01:47;7.53;;;6.80;;
73733;SDS011;62039;50.000;9.064;2024-03-22T00:04:13;8.40;;;7.23;;
73733;SDS011;62039;50.000;9.064;2024-03-22T00:06:39;7.80;;;7.10;;
73733;SDS011;62039;50.000;9.064;2024-03-22T00:09:06;6.53;;;5.93;;
73733;SDS011;62039;50.000;9.064;2024-03-22T00:11:32;7.77;;;7.07;;
73733;SDS011;62039;50.000;9.064;2024-03-22T00:14:00;7.03;;;6.40;;
73733;SDS011;62039;50.000;9.064;2024-03-22T00:16:26;7.67;;;6.80;;
73733;SDS011;62039;50.000;9.064;2024-03-22T00:18:52;7.57;;;6.77;;
73733;SDS011;62039;50.000;9.064;2024-03-22T00:21:18;8.03;;;7.23;;
73733;SDS011;62039;50.000;9.064;2024-03-22T00:23:44;8.60;;;7.70;;
73733;SDS011;62039;50.000;9.064;2024-03-22T00:26:11;7.60;;;6.90;;
73733;SDS011;62039;50.000;9.064;2024-03-22T00:28:36;7.90;;;7.17;;
73733;SDS011;62039;50.000;9.064;2024-03-22T00:31:05;8.67;;;7.30;;
73733;SDS011;62039;50.000;9.064;2024-03-22T00:33:31;8.27;;;7.47;;
73733;SDS011;62039;50.000;9.064;2024-03-22T00:35:56;8.60;;;7.67;;
73733;SDS011;62039;50.000;9.064;2024-03-22T00:38:22;8.53;;;7.63;;
73733;SDS011;62039;50.000;9.064;2024-03-22T00:40:48;9.23;;;8.33;;
73733;SDS011;62039;50.000;9.064;2024-03-22T00:43:14;8.80;;;8.00;;
73733;SDS011;62039;50.000;9.064;2024-03-22T00:45:40;8.13;;;7.33;;
73733;SDS011;62039;50.000;9.064;2024-03-22T00:48:08;9.03;;;8.13;;
73733;SDS011;62039;50.000;9.064;2024-03-22T00:50:34;7.97;;;7.27;;
73733;SDS011;62039;50.000;9.064;2024-03-22T00:53:00;7.43;;;6.73;;
73733;SDS011;62039;50.000;9.064;2024-03-22T00:55:26;8.30;;;7.50;;
73733;SDS011;62039;50.000;9.064;2024-03-22T00:57:51;7.97;;;7.23;;
73733;SDS011;62039;50.000;9.064;2024-03-22T01:00:17;7.13;;;6.47;;
73733;SDS011;62039;50.000;9.064;2024-03-22T01:02:44;7.77;;;6.97;;
73733;SDS011;62039;50.000;9.064;2024-03-22T01:05:12;8.57;;;7.77;;
73733;SDS011;62039;50.000;9.064;2024-03-22T01:07:38;8.83;;;8.03;;
73733;SDS011;62039;50.000;9.064;2024-03-22T01:10:04;8.97;;;8.07;;
73733;SDS011;62039;50.000;9.064;2024-03-22T01:12:31;9.00;;;8.10;;
73733;SDS011;62039;50.000;9.064;2024-03-22T01:14:56;9.27;;;8.37;;
73733;SDS011;62039;50.000;9.064;2024-03-22T01:17:22;8.87;;;7.97;;
73733;SDS011;62039;50.000;9.064;2024-03-22T01:19:48;9.00;;;8.10;;
73733;SDS011;62039;50.000;9.064;2024-03-22T01:22:17;8.73;;;7.50;;
73733;SDS011;62039;50.000;9.064;2024-03-22T01:24:43;8.90;;;8.00;;
73733;SDS011;62039;50.000;9.064;2024-03-22T01:27:09;9.33;;;8.33;;
73733;SDS011;62039;50.000;9.064;2024-03-22T01:29:35;9.07;;;8.17;;
73733;SDS011;62039;50.000;9.064;2024-03-22T01:32:01;9.60;;;8.40;;
73733;SDS011;62039;50.000;9.064;2024-03-22T01:34:26;10.53;;;8.53;;
73733;SDS011;62039;50.000;9.064;2024-03-22T01:36:52;10.30;;;9.23;;
73733;SDS011;62039;50.000;9.064;2024-03-22T01:39:21;9.60;;;8.70;;
73733;SDS011;62039;50.000;9.064;2024-03-22T01:41:47;9.43;;;8.20;;
73733;SDS011;62039;50.000;9.064;2024-03-22T01:44:13;8.93;;;8.03;;
73733;SDS011;62039;50.000;9.064;2024-03-22T01:46:38;10.80;;;9.60;;
73733;SDS011;62039;50.000;9.064;2024-03-22T01:49:04;9.13;;;8.23;;
73733;SDS011;62039;50.000;9.064;2024-03-22T01:51:30;10.53;;;9.50;;
73733;SDS011;62039;50.000;9.064;2024-03-22T01:53:57;10.93;;;9.83;;
73733;SDS011;62039;50.000;9.064;2024-03-22T01:56:27;10.40;;;9.33;;
73733;SDS011;62039;50.000;9.064;2024-03-22T01:58:54;11.90;;;10.00;;
73733;SDS011;62039;50.000;9.064;2024-03-22T02:01:21;11.60;;;9.83;;
73733;SDS011;62039;50.000;9.064;2024-03-22T02:03:47;10.93;;;9.80;;
73733;SDS011;62039;50.000;9.064;2024-03-22T02:06:13;11.17;;;9.17;;
73733;SDS011;62039;50.000;9.064;2024-03-22T02:08:39;10.33;;;9.23;;
73733;SDS011;62039;50.000;9.064;2024-03-22T02:11:05;9.90;;;8.90;;
73733;SDS011;62039;50.000;9.064;2024-03-22T02:13:34;9.83;;;8.70;;
73733;SDS011;62039;50.000;9.064;2024-03-22T02:16:02;10.50;;;8.33;;
73733;SDS011;62039;50.000;9.064;2024-03-22T02:18:28;10.07;;;8.93;;
73733;SDS011;62039;50.000;9.064;2024-03-22T02:20:54;9.50;;;8.57;;
73733;SDS011;62039;50.000;9.064;2024-03-22T02:23:27;9.27;;;7.17;;
73733;SDS011;62039;50.000;9.064;2024-03-22T02:25:57;8.47;;;7.40;;
73733;SDS011;62039;50.000;9.064;2024-03-22T02:28:23;9.27;;;8.30;;
73733;SDS011;62039;50.000;9.064;2024-03-22T02:30:49;9.03;;;7.70;;
73733;SDS011;62039;50.000;9.064;2024-03-22T02:33:15;8.90;;;7.63;;
73733;SDS011;62039;50.000;9.064;2024-03-22T02:35:41;8.57;;;7.73;;
73733;SDS011;62039;50.000;9.064;2024-03-22T02:38:06;10.17;;;7.20;;
73733;SDS011;62039;50.000;9.064;2024-03-22T02:40:35;8.00;;;7.03;;
73733;SDS011;62039;50.000;9.064;2024-03-22T02:43:00;8.53;;;7.23;;
73733;SDS011;62039;50.000;9.064;2024-03-22T02:45:26;7.83;;;7.03;;
73733;SDS011;62039;50.000;9.064;2024-03-22T02:47:52;7.83;;;7.03;;
73733;SDS011;62039;50.000;9.064;2024-03-22T02:50:18;7.60;;;6.80;;
73733;SDS011;62039;50.000;9.064;2024-03-22T02:52:43;7.70;;;6.83;;
73733;SDS011;62039;50.000;9.064;2024-03-22T02:55:09;7.97;;;7.17;;
73733;SDS011;62039;50.000;9.064;2024-03-22T02:57:38;7.67;;;6.97;;
73733;SDS011;62039;50.000;9.064;2024-03-22T03:00:04;8.27;;;7.47;;
73733;SDS011;62039;50.000;9.064;2024-03-22T03:02:31;8.77;;;7.63;;
73733;SDS011;62039;50.000;9.064;2024-03-22T03:04:57;10.07;;;8.17;;
73733;SDS011;62039;50.000;9.064;2024-03-22T03:07:23;11.33;;;7.93;;
73733;SDS011;62039;50.000;9.064;2024-03-22T03:09:49;9.00;;;8.07;;
73733;SDS011;62039;50.000;9.064;2024-03-22T03:12:15;8.23;;;7.47;;
73733;SDS011;62039;50.000;9.064;2024-03-22T03:14:43;8.67;;;7.87;;
73733;SDS011;62039;50.000;9.064;2024-03-22T03:17:09;8.57;;;7.67;;
73733;SDS011;62039;50.000;9.064;2024-03-22T03:19:35;8.87;;;7.87;;
73733;SDS011;62039;50.000;9.064;2024-03-22T03:22:01;8.10;;;7.30;;
73733;SDS011;62039;50.000;9.064;2024-03-22T03:24:27;8.83;;;7.93;;
73733;SDS011;62039;50.000;9.064;2024-03-22T03:26:53;9.30;;;8.30;;
73733;SDS011;62039;50.000;9.064;2024-03-22T03:29:19;10.77;;;8.17;;
73733;SDS011;62039;50.000;9.064;2024-03-22T03:31:48;9.40;;;8.13;;
73733;SDS011;62039;50.000;9.064;2024-03-22T03:34:14;8.37;;;7.37;;
73733;SDS011;62039;50.000;9.064;2024-03-22T03:36:40;9.13;;;8.20;;
73733;SDS011;62039;50.000;9.064;2024-03-22T03:39:05;10.03;;;8.00;;
73733;SDS011;62039;50.000;9.064;2024-03-22T03:41:31;7.97;;;7.17;;
73733;SDS011;62039;50.000;9.064;2024-03-22T03:43:57;9.00;;;7.60;;
73733;SDS011;62039;50.000;9.064;2024-03-22T03:46:23;8.20;;;7.40;;
73733;SDS011;62039;50.000;9.064;2024-03-22T03:48:51;10.03;;;8.17;;
73733;SDS011;62039;50.000;9.064;2024-03-22T03:51:17;9.43;;;8.20;;
73733;SDS011;62039;50.000;9.064;2024-03-22T03:53:43;8.93;;;7.80;;
73733;SDS011;62039;50.000;9.064;2024-03-22T03:56:09;9.30;;;7.70;;
73733;SDS011;62039;50.000;9.064;2024-03-22T03:58:34;9.20;;;7.67;;
73733;SDS011;62039;50.000;9.064;2024-03-22T04:01:04;9.43;;;8.00;;
73733;SDS011;62039;50.000;9.064;2024-03-22T04:03:30;8.03;;;7.27;;
73733;SDS011;62039;50.000;9.064;2024-03-22T04:05:59;8.00;;;7.20;;
73733;SDS011;62039;50.000;9.064;2024-03-22T04:08:25;9.83;;;8.83;;
73733;SDS011;62039;50.000;9.064;2024-03-22T04:10:52;9.00;;;8.10;;
73733;SDS011;62039;50.000;9.064;2024-03-22T04:13:17;10.13;;;8.33;;
73733;SDS011;62039;50.000;9.064;2024-03-22T04:15:43;8.97;;;7.63;;
73733;SDS011;62039;50.000;9.064;2024-03-22T04:18:09;8.60;;;7.70;;
73733;SDS011;62039;50.000;9.064;2024-03-22T04:20:35;10.53;;;8.37;;
73733;SDS011;62039;50.000;9.064;2024-03-22T04:23:03;11.30;;;8.17;;
73733;SDS011;62039;50.000;9.064;2024-03-22T04:25:29;9.43;;;7.67;;
73733;SDS011;62039;50.000;9.064;2024-03-22T04:27:55;9.30;;;8.33;;
73733;SDS011;62039;50.000;9.064;2024-03-22T04:30:20;8.70;;;7.67;;
73733;SDS011;62039;50.000;9.064;2024-03-22T04:32:46;7.87;;;7.07;;
73733;SDS011;62039;50.000;9.064;2024-03-22T04:35:12;9.23;;;8.23;;
73733;SDS011;62039;50.000;9.064;2024-03-22T04:37:38;9.13;;;8.10;;
73733;SDS011;62039;50.000;9.064;2024-03-22T04:40:07;9.83;;;8.83;;
73733;SDS011;62039;50.000;9.064;2024-03-22T04:42:34;10.00;;;8.97;;
73733;SDS011;62039;50.000;9.064;2024-03-22T04:44:59;9.00;;;8.10;;
73733;SDS011;62039;50.000;9.064;2024-03-22T04:47:25;9.60;;;8.60;;
73733;SDS011;62039;50.000;9.064;2024-03-22T04:49:51;10.03;;;8.67;;
73733;SDS011;62039;50.000;9.064;2024-03-22T04:52:17;9.57;;;8.57;;
73733;SDS011;62039;50.000;9.064;2024-03-22T04:54:43;8.13;;;7.10;;
73733;SDS011;62039;50.000;9.064;2024-03-22T04:57:11;8.93;;;7.40;;
73733;SDS011;62039;50.000;9.064;2024-03-22T04:59:37;8.57;;;7.67;;
73733;SDS011;62039;50.000;9.064;2024-03-22T05:02:02;9.73;;;8.60;;
73733;SDS011;62039;50.000;9.064;2024-03-22T05:04:28;10.23;;;8.77;;
73733;SDS011;62039;50.000;9.064;2024-03-22T05:06:54;10.57;;;9.40;;
73733;SDS011;62039;50.000;9.064;2024-03-22T05:09:20;13.17;;;9.47;;
73733;SDS011;62039;50.000;9.064;2024-03-22T05:11:45;8.73;;;7.63;;
73733;SDS011;62039;50.000;9.064;2024-03-22T05:14:14;11.40;;;8.67;;
73733;SDS011;62039;50.000;9.064;2024-03-22T05:16:40;8.90;;;8.00;;
73733;SDS011;62039;50.000;9.064;2024-03-22T05:19:05;13.60;;;10.47;;
73733;SDS011;62039;50.000;9.064;2024-03-22T05:21:31;10.53;;;9.43;;
73733;SDS011;62039;50.000;9.064;2024-03-22T05:23:57;9.20;;;7.53;;
73733;SDS011;62039;50.000;9.064;2024-03-22T05:26:23;10.40;;;8.53;;
73733;SDS011;62039;50.000;9.064;2024-03-22T05:28:49;9.50;;;7.90;;
73733;SDS011;62039;50.000;9.064;2024-03-22T05:31:17;11.03;;;8.67;;
73733;SDS011;62039;50.000;9.064;2024-03-22T05:33:43;10.93;;;8.20;;
73733;SDS011;62039;50.000;9.064;2024-03-22T05:36:08;8.93;;;7.53;;
73733;SDS011;62039;50.000;9.064;2024-03-22T05:38:34;9.80;;;8.37;;
73733;SDS011;62039;50.000;9.064;2024-03-22T05:41:03;10.37;;;8.67;;
73733;SDS011;62039;50.000;9.064;2024-03-22T05:43:29;9.47;;;8.40;;
73733;SDS011;62039;50.000;9.064;2024-03-22T05:45:55;12.00;;;8.53;;
73733;SDS011;62039;50.000;9.064;2024-03-22T05:48:23;11.30;;;9.70;;
73733;SDS011;62039;50.000;9.064;2024-03-22T05:50:49;16.63;;;10.30;;
73733;SDS011;62039;50.000;9.064;2024-03-22T05:53:15;12.70;;;10.53;;
73733;SDS011;62039;50.000;9.064;2024-03-22T05:55:40;13.30;;;9.17;;
73733;SDS011;62039;50.000;9.064;2024-03-22T05:58:07;10.93;;;9.07;;
73733;SDS011;62039;50.000;9.064;2024-03-22T06:00:33;10.37;;;9.27;;
73733;SDS011;62039;50.000;9.064;2024-03-22T06:02:59;11.03;;;8.67;;
73733;SDS011;62039;50.000;9.064;2024-03-22T06:05:27;10.90;;;8.30;;
73733;SDS011;62039;50.000;9.064;2024-03-22T06:07:53;9.07;;;8.13;;
73733;SDS011;62039;50.000;9.064;2024-03-22T06:10:18;11.90;;;8.87;;
73733;SDS011;62039;50.000;9.064;2024-03-22T06:12:44;13.80;;;8.87;;
73733;SDS011;62039;50.000;9.064;2024-03-22T06:15:10;19.73;;;10.53;;
73733;SDS011;62039;50.000;9.064;2024-03-22T06:17:36;13.73;;;9.40;;
73733;SDS011;62039;50.000;9.064;2024-03-22T06:20:02;13.83;;;9.70;;
73733;SDS011;62039;50.000;9.064;2024-03-22T06:22:30;11.87;;;9.47;;
73733;SDS011;62039;50.000;9.064;2024-03-22T06:24:56;11.53;;;8.27;;
73733;SDS011;62039;50.000;9.064;2024-03-22T06:27:22;11.83;;;8.83;;
73733;SDS011;62039;50.000;9.064;2024-03-22T06:29:47;14.13;;;9.00;;
73733;SDS011;62039;50.000;9.064;2024-03-22T06:32:13;8.33;;;7.40;;
73733;SDS011;62039;50.000;9.064;2024-03-22T06:34:39;9.47;;;7.83;;
73733;SDS011;62039;50.000;9.064;2024-03-22T06:37:05;14.00;;;10.83;;
73733;SDS011;62039;50.000;9.064;2024-03-22T06:39:33;14.50;;;10.67;;
73733;SDS011;62039;50.000;9.064;2024-03-22T06:41:59;11.13;;;9.10;;
73733;SDS011;62039;50.000;9.064;2024-03-22T06:44:25;11.33;;;9.73;;
73733;SDS011;62039;50.000;9.064;2024-03-22T06:46:51;10.07;;;7.80;;
73733;SDS011;62039;50.000;9.064;2024-03-22T06:49:17;9.37;;;8.37;;
73733;SDS011;62039;50.000;9.064;2024-03-22T06:51:42;8.33;;;7.33;;
73733;SDS011;62039;50.000;9.064;2024-03-22T06:54:08;10.03;;;8.27;;
73733;SDS011;62039;50.000;9.064;2024-03-22T06:56:37;12.27;;;8.87;;
73733;SDS011;62039;50.000;9.064;2024-03-22T06:59:02;11.00;;;9.50;;
73733;SDS011;62039;50.000;9.064;2024-03-22T07:01:28;9.40;;;8.03;;
73733;SDS011;62039;50.000;9.064;2024-03-22T07:03:54;8.63;;;7.37;;
73733;SDS011;62039;50.000;9.064;2024-03-22T07:06:20;10.27;;;7.87;;
73733;SDS011;62039;50.000;9.064;2024-03-22T07:08:45;8.10;;;6.97;;
73733;SDS011;62039;50.000;9.064;2024-03-22T07:11:11;9.03;;;6.63;;
73733;SDS011;62039;50.000;9.064;2024-03-22T07:13:39;8.53;;;6.90;;
73733;SDS011;62039;50.000;9.064;2024-03-22T07:16:06;9.67;;;6.47;;
73733;SDS011;62039;50.000;9.064;2024-03-22T07:18:32;9.20;;;6.77;;
73733;SDS011;62039;50.000;9.064;2024-03-22T07:20:57;9.07;;;7.37;;
73733;SDS011;62039;50.000;9.064;2024-03-22T07:23:23;9.20;;;7.37;;
73733;SDS011;62039;50.000;9.064;2024-03-22T07:25:49;10.00;;;7.37;;
73733;SDS011;62039;50.000;9.064;2024-03-22T07:28:15;10.93;;;8.27;;
73733;SDS011;62039;50.000;9.064;2024-03-22T07:30:43;10.03;;;8.40;;
73733;SDS011;62039;50.000;9.064;2024-03-22T07:33:10;9.30;;;8.30;;
73733;SDS011;62039;50.000;9.064;2024-03-22T07:35:36;9.80;;;8.67;;
73733;SDS011;62039;50.000;9.064;2024-03-22T07:38:01;10.60;;;9.37;;
73733;SDS011;62039;50.000;9.064;2024-03-22T07:40:27;9.80;;;8.80;;
73733;SDS011;62039;50.000;9.064;2024-03-22T07:42:53;11.00;;;8.83;;
73733;SDS011;62039;50.000;9.064;2024-03-22T07:45:19;20.30;;;9.93;;
73733;SDS011;62039;50.000;9.064;2024-03-22T07:47:47;11.53;;;8.37;;
73733;SDS011;62039;50.000;9.064;2024-03-22T07:50:13;11.37;;;8.87;;
73733;SDS011;62039;50.000;9.064;2024-03-22T07:52:39;10.43;;;8.63;;
73733;SDS011;62039;50.000;9.064;2024-03-22T07:55:05;9.40;;;8.10;;
73733;SDS011;62039;50.000;9.064;2024-03-22T07:57:31;9.93;;;8.23;;
73733;SDS011;62039;50.000;9.064;2024-03-22T07:59:56;10.20;;;7.73;;
73733;SDS011;62039;50.000;9.064;2024-03-22T08:02:22;13.57;;;7.97;;
73733;SDS011;62039;50.000;9.064;2024-03-22T08:04:51;8.93;;;7.70;;
73733;SDS011;62039;50.000;9.064;2024-03-22T08:07:16;7.33;;;6.40;;
73733;SDS011;62039;50.000;9.064;2024-03-22T08:09:42;8.27;;;6.90;;
73733;SDS011;62039;50.000;9.064;2024-03-22T08:12:08;7.60;;;6.70;;
73733;SDS011;62039;50.000;9.064;2024-03-22T08:14:34;10.80;;;7.27;;
73733;SDS011;62039;50.000;9.064;2024-03-22T08:17:00;12.87;;;7.97;;
73733;SDS011;62039;50.000;9.064;2024-03-22T08:19:25;8.73;;;6.73;;
73733;SDS011;62039;50.000;9.064;2024-03-22T08:21:54;9.97;;;6.63;;
73733;SDS011;62039;50.000;9.064;2024-03-22T08:24:20;7.73;;;6.30;;
73733;SDS011;62039;50.000;9.064;2024-03-22T08:26:45;8.20;;;6.20;;
73733;SDS011;62039;50.000;9.064;2024-03-22T08:29:11;8.57;;;6.57;;
73733;SDS011;62039;50.000;9.064;2024-03-22T08:31:37;9.77;;;7.63;;
73733;SDS011;62039;50.000;9.064;2024-03-22T08:34:03;10.40;;;7.97;;
73733;SDS011;62039;50.000;9.064;2024-03-22T08:36:28;12.07;;;9.27;;
73733;SDS011;62039;50.000;9.064;2024-03-22T08:38:57;12.90;;;7.87;;
73733;SDS011;62039;50.000;9.064;2024-03-22T08:41:23;10.77;;;7.00;;
73733;SDS011;62039;50.000;9.064;2024-03-22T08:43:48;10.27;;;7.17;;
73733;SDS011;62039;50.000;9.064;2024-03-22T08:46:14;15.30;;;8.53;;
73733;SDS011;62039;50.000;9.064;2024-03-22T08:48:40;8.90;;;7.37;;
73733;SDS011;62039;50.000;9.064;2024-03-22T08:51:06;7.63;;;6.53;;
73733;SDS011;62039;50.000;9.064;2024-03-22T08:53:32;8.97;;;7.07;;
73733;SDS011;62039;50.000;9.064;2024-03-22T08:56:00;10.20;;;7.60;;
73733;SDS011;62039;50.000;9.064;2024-03-22T08:58:26;7.57;;;6.60;;
73733;SDS011;62039;50.000;9.064;2024-03-22T09:00:52;8.20;;;6.27;;
73733;SDS011;62039;50.000;9.064;2024-03-22T09:03:17;7.20;;;6.37;;
73733;SDS011;62039;50.000;9.064;2024-03-22T09:05:43;8.30;;;6.37;;
73733;SDS011;62039;50.000;9.064;2024-03-22T09:08:09;7.00;;;6.30;;
73733;SDS011;62039;50.000;9.064;2024-03-22T09:10:35;8.00;;;6.93;;
73733;SDS011;62039;50.000;9.064;2024-03-22T09:13:03;7.23;;;6.23;;
73733;SDS011;62039;50.000;9.064;2024-03-22T09:15:29;7.30;;;6.50;;
73733;SDS011;62039;50.000;9.064;2024-03-22T09:17:55;7.37;;;6.47;;
73733;SDS011;62039;50.000;9.064;2024-03-22T09:20:21;7.27;;;6.00;;
73733;SDS011;62039;50.000;9.064;2024-03-22T09:22:46;7.13;;;5.97;;
73733;SDS011;62039;50.000;9.064;2024-03-22T09:25:12;8.70;;;6.70;;
73733;SDS011;62039;50.000;9.064;2024-03-22T09:27:38;8.07;;;6.60;;
73733;SDS011;62039;50.000;9.064;2024-03-22T09:30:07;7.43;;;6.03;;
73733;SDS011;62039;50.000;9.064;2024-03-22T09:32:34;9.90;;;8.17;;
73733;SDS011;62039;50.000;9.064;2024-03-22T09:34:59;6.93;;;5.63;;
73733;SDS011;62039;50.000;9.064;2024-03-22T09:37:25;8.33;;;7.10;;
73733;SDS011;62039;50.000;9.064;2024-03-22T09:39:51;10.37;;;6.73;;
73733;SDS011;62039;50.000;9.064;2024-03-22T09:42:17;7.07;;;5.87;;
73733;SDS011;62039;50.000;9.064;2024-03-22T09:44:43;7.10;;;6.40;;
73733;SDS011;62039;50.000;9.064;2024-03-22T09:47:16;7.30;;;6.40;;
73733;SDS011;62039;50.000;9.064;2024-03-22T09:49:43;7.40;;;5.57;;
73733;SDS011;62039;50.000;9.064;2024-03-22T09:52:09;8.77;;;6.27;;
73733;SDS011;62039;50.000;9.064;2024-03-22T09:54:37;6.73;;;5.97;;
73733;SDS011;62039;50.000;9.064;2024-03-22T09:57:03;6.30;;;5.67;;
73733;SDS011;62039;50.000;9.064;2024-03-22T09:59:29;7.20;;;5.97;;
73733;SDS011;62039;50.000;9.064;2024-03-22T10:01:55;6.60;;;5.50;;
73733;SDS011;62039;50.000;9.064;2024-03-22T10:04:26;5.93;;;5.33;;
73733;SDS011;62039;50.000;9.064;2024-03-22T10:06:52;6.50;;;5.67;;
73733;SDS011;62039;50.000;9.064;2024-03-22T10:09:17;6.53;;;5.83;;
73733;SDS011;62039;50.000;9.064;2024-03-22T10:11:43;6.87;;;5.47;;
73733;SDS011;62039;50.000;9.064;2024-03-22T10:14:09;5.23;;;4.73;;
73733;SDS011;62039;50.000;9.064;2024-03-22T10:16:35;5.37;;;4.87;;
73733;SDS011;62039;50.000;9.064;2024-03-22T10:19:01;6.37;;;5.40;;
73733;SDS011;62039;50.000;9.064;2024-03-22T10:21:29;12.37;;;6.53;;
73733;SDS011;62039;50.000;9.064;2024-03-22T10:23:55;14.13;;;6.33;;
73733;SDS011;62039;50.000;9.064;2024-03-22T10:26:21;7.03;;;5.80;;
73733;SDS011;62039;50.000;9.064;2024-03-22T10:28:47;6.73;;;5.43;;
73733;SDS011;62039;50.000;9.064;2024-03-22T10:31:14;9.83;;;6.80;;
73733;SDS011;62039;50.000;9.064;2024-03-22T10:33:40;7.77;;;6.23;;
73733;SDS011;62039;50.000;9.064;2024-03-22T10:36:06;6.03;;;5.43;;
73733;SDS011;62039;50.000;9.064;2024-03-22T10:38:35;5.67;;;5.07;;
73733;SDS011;62039;50.000;9.064;2024-03-22T10:41:03;5.60;;;4.93;;
73733;SDS011;62039;50.000;9.064;2024-03-22T10:43:29;5.03;;;4.53;;
73733;SDS011;62039;50.000;9.064;2024-03-22T10:45:55;5.13;;;4.63;;
73733;SDS011;62039;50.000;9.064;2024-03-22T10:48:25;6.70;;;5.57;;
73733;SDS011;62039;50.000;9.064;2024-03-22T10:50:55;5.53;;;4.37;;
73733;SDS011;62039;50.000;9.064;2024-03-22T10:53:24;4.70;;;4.13;;
73733;SDS011;62039;50.000;9.064;2024-03-22T10:55:53;5.00;;;4.50;;
73733;SDS011;62039;50.000;9.064;2024-03-22T10:58:21;5.43;;;4.83;;
73733;SDS011;62039;50.000;9.064;2024-03-22T11:00:50;4.03;;;3.63;;
73733;SDS011;62039;50.000;9.064;2024-03-22T11:03:19;4.80;;;4.33;;
73733;SDS011;62039;50.000;9.064;2024-03-22T11:05:45;5.53;;;4.63;;
73733;SDS011;62039;50.000;9.064;2024-03-22T11:08:11;5.10;;;4.20;;
73733;SDS011;62039;50.000;9.064;2024-03-22T11:10:37;3.53;;;3.10;;
73733;SDS011;62039;50.000;9.064;2024-03-22T11:13:06;3.43;;;2.63;;
73733;SDS011;62039;50.000;9.064;2024-03-22T11:15:34;3.27;;;2.77;;
73733;SDS011;62039;50.000;9.064;2024-03-22T11:18:00;2.57;;;2.10;;
73733;SDS011;62039;50.000;9.064;2024-03-22T11:20:25;2.53;;;2.00;;
73733;SDS011;62039;50.000;9.064;2024-03-22T11:22:52;3.50;;;2.07;;
73733;SDS011;62039;50.000;9.064;2024-03-22T11:25:18;2.80;;;2.17;;
73733;SDS011;62039;50.000;9.064;2024-03-22T11:27:44;2.10;;;1.90;;
73733;SDS011;62039;50.000;9.064;2024-03-22T11:30:12;3.07;;;2.50;;
73733;SDS011;62039;50.000;9.064;2024-03-22T11:32:40;3.50;;;2.70;;
73733;SDS011;62039;50.000;9.064;2024-03-22T11:35:06;3.07;;;2.70;;
73733;SDS011;62039;50.000;9.064;2024-03-22T11:37:32;2.80;;;2.43;;
73733;SDS011;62039;50.000;9.064;2024-03-22T11:39:58;2.97;;;2.57;;
73733;SDS011;62039;50.000;9.064;2024-03-22T11:42:24;3.07;;;2.73;;
73733;SDS011;62039;50.000;9.064;2024-03-22T11:44:49;3.30;;;3.00;;
73733;SDS011;62039;50.000;9.064;2024-03-22T11:47:18;3.57;;;3.10;;
73733;SDS011;62039;50.000;9.064;2024-03-22T11:49:44;4.23;;;3.77;;
73733;SDS011;62039;50.000;9.064;2024-03-22T11:52:10;5.30;;;4.30;;
73733;SDS011;62039;50.000;9.064;2024-03-22T11:54:35;5.07;;;3.70;;
73733;SDS011;62039;50.000;9.064;2024-03-22T11:57:02;6.13;;;4.40;;
73733;SDS011;62039;50.000;9.064;2024-03-22T11:59:29;5.23;;;4.03;;
73733;SDS011;62039;50.000;9.064;2024-03-22T12:01:55;5.27;;;4.70;;
73733;SDS011;62039;50.000;9.064;2024-03-22T12:04:23;4.70;;;4.10;;
73733;SDS011;62039;50.000;9.064;2024-03-22T12:06:49;5.33;;;4.57;;
73733;SDS011;62039;50.000;9.064;2024-03-22T12:09:15;5.20;;;3.70;;
73733;SDS011;62039;50.000;9.064;2024-03-22T12:11:40;4.00;;;3.60;;
73733;SDS011;62039;50.000;9.064;2024-03-22T12:14:06;3.97;;;3.50;;
73733;SDS011;62039;50.000;9.064;2024-03-22T12:16:32;3.90;;;3.50;;
73733;SDS011;62039;50.000;9.064;2024-03-22T12:18:58;4.03;;;3.60;;
73733;SDS011;62039;50.000;9.064;2024-03-22T12:21:26;5.07;;;3.73;;
73733;SDS011;62039;50.000;9.064;2024-03-22T12:23:52;4.60;;;3.60;;
73733;SDS011;62039;50.000;9.064;2024-03-22T12:26:18;5.37;;;4.23;;
73733;SDS011;62039;50.000;9.064;2024-03-22T12:28:43;7.07;;;5.47;;
73733;SDS011;62039;50.000;9.064;2024-03-22T12:31:09;5.20;;;4.43;;
73733;SDS011;62039;50.000;9.064;2024-03-22T12:33:35;6.67;;;4.97;;
73733;SDS011;62039;50.000;9.064;2024-03-22T12:36:01;5.37;;;4.87;;
73733;SDS011;62039;50.000;9.064;2024-03-22T12:38:30;5.93;;;4.67;;
73733;SDS011;62039;50.000;9.064;2024-03-22T12:40:56;5.83;;;5.23;;
73733;SDS011;62039;50.000;9.064;2024-03-22T12:43:22;6.13;;;5.27;;
73733;SDS011;62039;50.000;9.064;2024-03-22T12:45:47;5.27;;;4.40;;
73733;SDS011;62039;50.000;9.064;2024-03-22T12:48:13;5.93;;;4.03;;
73733;SDS011;62039;50.000;9.064;2024-03-22T12:50:39;6.83;;;5.60;;
73733;SDS011;62039;50.000;9.064;2024-03-22T12:53:05;5.33;;;4.70;;
73733;SDS011;62039;50.000;9.064;2024-03-22T12:55:33;7.13;;;5.10;;
73733;SDS011;62039;50.000;9.064;2024-03-22T12:57:59;5.00;;;4.50;;
73733;SDS011;62039;50.000;9.064;2024-03-22T13:00:25;5.97;;;5.20;;
73733;SDS011;62039;50.000;9.064;2024-03-22T13:02:50;7.20;;;5.30;;
73733;SDS011;62039;50.000;9.064;2024-03-22T13:05:16;8.80;;;6.80;;
73733;SDS011;62039;50.000;9.064;2024-03-22T13:07:42;6.73;;;6.00;;
73733;SDS011;62039;50.000;9.064;2024-03-22T13:10:09;9.57;;;6.80;;
73733;SDS011;62039;50.000;9.064;2024-03-22T13:12:37;7.77;;;5.67;;
73733;SDS011;62039;50.000;9.064;2024-03-22T13:15:03;5.83;;;5.17;;
73733;SDS011;62039;50.000;9.064;2024-03-22T13:17:29;8.67;;;7.43;;
73733;SDS011;62039;50.000;9.064;2024-03-22T13:19:55;9.60;;;6.73;;
73733;SDS011;62039;50.000;9.064;2024-03-22T13:22:21;8.67;;;7.00;;
73733;SDS011;62039;50.000;9.064;2024-03-22T13:24:47;5.90;;;4.77;;
73733;SDS011;62039;50.000;9.064;2024-03-22T13:27:13;6.03;;;5.23;;
73733;SDS011;62039;50.000;9.064;2024-03-22T13:29:42;5.63;;;4.47;;
73733;SDS011;62039;50.000;9.064;2024-03-22T13:32:08;5.60;;;4.23;;
73733;SDS011;62039;50.000;9.064;2024-03-22T13:34:34;5.00;;;4.50;;
73733;SDS011;62039;50.000;9.064;2024-03-22T13:37:00;5.93;;;3.87;;
73733;SDS011;62039;50.000;9.064;2024-03-22T13:39:26;4.77;;;3.83;;
73733;SDS011;62039;50.000;9.064;2024-03-22T13:41:51;4.93;;;3.87;;
73733;SDS011;62039;50.000;9.064;2024-03-22T13:44:17;6.33;;;5.20;;
73733;SDS011;62039;50.000;9.064;2024-03-22T13:46:46;6.57;;;4.43;;
73733;SDS011;62039;50.000;9.064;2024-03-22T13:49:14;6.27;;;4.60;;
73733;SDS011;62039;50.000;9.064;2024-03-22T13:51:41;5.53;;;4.07;;
73733;SDS011;62039;50.000;9.064;2024-03-22T13:54:07;4.73;;;3.80;;
73733;SDS011;62039;50.000;9.064;2024-03-22T13:56:32;6.40;;;5.23;;
73733;SDS011;62039;50.000;9.064;2024-03-22T13:58:58;4.77;;;4.30;;
73733;SDS011;62039;50.000;9.064;2024-03-22T14:01:24;6.20;;;5.33;;
73733;SDS011;62039;50.000;9.064;2024-03-22T14:03:53;4.83;;;4.33;;
73733;SDS011;62039;50.000;9.064;2024-03-22T14:06:18;4.37;;;3.93;;
73733;SDS011;62039;50.000;9.064;2024-03-22T14:08:44;5.43;;;4.33;;
73733;SDS011;62039;50.000;9.064;2024-03-22T14:11:10;5.00;;;4.50;;
73733;SDS011;62039;50.000;9.064;2024-03-22T14:13:36;4.50;;;4.10;;
73733;SDS011;62039;50.000;9.064;2024-03-22T14:16:01;5.00;;;4.50;;
73733;SDS011;62039;50.000;9.064;2024-03-22T14:18:27;4.53;;;4.10;;
73733;SDS011;62039;50.000;9.064;2024-03-22T14:20:56;4.43;;;3.83;;
73733;SDS011;62039;50.000;9.064;2024-03-22T14:23:22;5.00;;;4.17;;
73733;SDS011;62039;50.000;9.064;2024-03-22T14:25:47;5.17;;;4.33;;
73733;SDS011;62039;50.000;9.064;2024-03-22T14:28:13;4.40;;;4.00;;
73733;SDS011;62039;50.000;9.064;2024-03-22T14:30:39;6.07;;;4.30;;
73733;SDS011;62039;50.000;9.064;2024-03-22T14:33:05;5.00;;;4.50;;
73733;SDS011;62039;50.000;9.064;2024-03-22T14:35:30;4.60;;;4.20;;
73733;SDS011;62039;50.000;9.064;2024-03-22T14:37:59;5.53;;;4.40;;
73733;SDS011;62039;50.000;9.064;2024-03-22T14:40:25;5.43;;;4.33;;